Fort Sheridan, Illinois
Current Conditions -  °F | °C
As of 6:52 AM on Monday 20 Oct 2014 (Local Time) from KPWK Reporting Station
Clear Clear  
Wind Chill: 47°   Ceiling: Unl
Heat Index: 49°   Visibility: 10mi
Dew Point: 43°   Wind: 5mph
Humidity: 80%   Direction: 250°WSW
Pressure: 29.8"   Gusts: NA
Location:  42.22°N, 87.81°W
Report Text: KPWK 201152Z 25004KT 10SM CLR 09/06 A2980 RMK AO2 LTG DSNT E AND SE SLP094 60001 70001 T00940061 10122 20094 56011
Loading
Personal Weather Stations






























Interactive Weather Map
Tropical Storm Tracking
New forecast layout! Learn more

10-Day Weather Forecast

Advertisements
Track Severe Weather on mobile